createdAt,value
2023-03-18T00:01:51.848Z,4.90
2023-03-18T00:06:53.416Z,3.15
2023-03-18T00:11:56.622Z,3.80
2023-03-18T00:16:58.008Z,2.90
2023-03-18T00:21:59.707Z,3.03
2023-03-18T00:27:01.163Z,2.90
2023-03-18T00:32:02.678Z,3.15
2023-03-18T00:37:04.080Z,3.42
2023-03-18T00:42:10.673Z,3.25
2023-03-18T00:47:12.133Z,3.88
2023-03-18T00:52:13.650Z,3.88
2023-03-18T00:57:15.064Z,4.55
2023-03-18T01:02:17.125Z,3.72
2023-03-18T01:07:19.491Z,3.72
2023-03-18T01:12:21.291Z,3.15
2023-03-18T01:17:22.780Z,5.97
2023-03-18T01:22:24.398Z,4.68
2023-03-18T01:27:27.050Z,4.00
2023-03-18T01:32:28.931Z,4.15
2023-03-18T01:37:31.557Z,4.70
2023-03-18T01:42:33.251Z,3.08
2023-03-18T01:47:35.147Z,3.78
2023-03-18T01:52:37.191Z,3.13
2023-03-18T01:57:38.791Z,3.60
2023-03-18T02:02:42.412Z,3.92
2023-03-18T02:07:45.694Z,3.75
2023-03-18T02:12:52.526Z,3.25
2023-03-18T02:17:59.633Z,3.63
2023-03-18T02:23:29.160Z,4.30
2023-03-18T02:28:33.445Z,3.28
2023-03-18T02:33:38.901Z,2.90
2023-03-18T02:38:44.544Z,3.30
2023-03-18T02:43:46.866Z,3.88
2023-03-18T02:48:48.932Z,3.55
2023-03-18T02:53:51.702Z,3.50
2023-03-18T02:58:53.133Z,3.25
2023-03-18T03:03:54.880Z,3.30
2023-03-18T03:08:57.395Z,3.90
2023-03-18T03:13:58.924Z,5.43
2023-03-18T03:19:00.305Z,4.45
2023-03-18T03:24:06.346Z,3.60
2023-03-18T03:29:07.829Z,5.22
2023-03-18T03:34:09.371Z,4.32
2023-03-18T03:39:10.763Z,3.75
2023-03-18T03:44:12.160Z,2.35
2023-03-18T03:49:13.531Z,2.13
2023-03-18T03:54:15.374Z,2.30
2023-03-18T03:59:16.903Z,1.75
2023-03-18T04:04:18.370Z,1.65
2023-03-18T04:09:19.936Z,1.65
2023-03-18T04:14:21.341Z,1.30
2023-03-18T04:19:22.760Z,1.85
2023-03-18T04:24:24.241Z,1.67
2023-03-18T04:29:27.750Z,1.67
2023-03-18T04:34:29.390Z,1.50
2023-03-18T04:39:30.834Z,1.30
2023-03-18T04:44:32.236Z,1.42
2023-03-18T04:49:34.565Z,1.70
2023-03-18T04:54:37.294Z,2.08
2023-03-18T04:59:38.838Z,2.95
2023-03-18T05:04:40.280Z,1.92
2023-03-18T05:09:42.458Z,2.03
2023-03-18T05:14:44.952Z,1.95
2023-03-18T05:19:48.310Z,2.17
2023-03-18T05:24:50.478Z,2.35
2023-03-18T05:29:52.961Z,1.85
2023-03-18T05:34:54.359Z,2.40
2023-03-18T05:39:55.883Z,2.50
2023-03-18T05:44:57.980Z,2.42
2023-03-18T05:49:59.946Z,2.33
2023-03-18T05:55:02.322Z,1.90
2023-03-18T06:00:04.499Z,2.30
2023-03-18T06:05:06.313Z,2.72
2023-03-18T06:10:08.840Z,2.47
2023-03-18T06:15:11.902Z,2.40
2023-03-18T06:20:15.660Z,2.05
2023-03-18T06:25:20.072Z,2.75
2023-03-18T06:30:22.101Z,2.40
2023-03-18T06:35:26.586Z,2.08
2023-03-18T06:40:28.570Z,2.00
2023-03-18T06:45:30.209Z,1.92
2023-03-18T06:50:32.331Z,2.17
2023-03-18T06:55:34.884Z,2.00
2023-03-18T07:00:36.526Z,2.17
2023-03-18T07:05:38.607Z,1.95
2023-03-18T07:10:40.830Z,2.40
2023-03-18T07:15:42.899Z,2.40
2023-03-18T07:20:44.762Z,2.15
2023-03-18T07:25:46.322Z,2.75
2023-03-18T07:30:47.996Z,1.73
2023-03-18T07:35:50.048Z,2.10
2023-03-18T07:40:51.475Z,1.92
2023-03-18T07:45:52.975Z,1.90
2023-03-18T07:50:54.428Z,1.40
2023-03-18T07:55:56.085Z,2.15
2023-03-18T08:00:57.788Z,2.33
2023-03-18T08:05:59.342Z,2.00
2023-03-18T08:11:02.432Z,2.22
2023-03-18T08:16:04.237Z,1.83
2023-03-18T08:21:06.100Z,1.55
2023-03-18T08:26:07.715Z,1.77
2023-03-18T08:31:09.537Z,1.52
2023-03-18T08:36:12.038Z,0.90
2023-03-18T08:41:14.479Z,0.98
2023-03-18T08:46:16.008Z,1.38
2023-03-18T08:51:17.490Z,1.25
2023-03-18T08:56:18.887Z,0.82
2023-03-18T09:01:22.307Z,0.70
2023-03-18T09:06:23.743Z,0.82
2023-03-18T09:11:25.400Z,0.60
2023-03-18T09:16:27.032Z,0.70
2023-03-18T09:21:28.512Z,0.73
2023-03-18T09:26:30.127Z,1.35
2023-03-18T09:31:31.707Z,1.10
2023-03-18T09:36:33.828Z,1.20
2023-03-18T09:42:03.407Z,1.00
2023-03-18T09:47:22.452Z,0.80
2023-03-18T09:52:37.912Z,0.90
2023-03-18T09:57:44.106Z,1.02
2023-03-18T10:02:53.266Z,0.70
2023-03-18T10:07:59.401Z,1.00
2023-03-18T10:13:11.323Z,0.80
2023-03-18T10:18:29.413Z,0.90
2023-03-18T10:23:31.002Z,0.95
2023-03-18T10:28:35.707Z,0.93
2023-03-18T10:33:47.770Z,0.88
2023-03-18T10:38:51.773Z,1.10
2023-03-18T10:43:55.236Z,1.15
2023-03-18T10:49:06.305Z,0.95
2023-03-18T10:54:22.995Z,0.90
2023-03-18T10:59:26.488Z,0.70
2023-03-18T11:04:31.982Z,0.70
2023-03-18T11:09:39.480Z,1.45
2023-03-18T11:14:42.239Z,0.90
2023-03-18T11:19:49.287Z,0.70
2023-03-18T11:25:13.818Z,0.85
2023-03-18T11:30:33.637Z,0.88
2023-03-18T11:35:54.126Z,0.75
2023-03-18T11:41:16.975Z,1.00
2023-03-18T11:46:18.838Z,1.63
2023-03-18T11:51:40.860Z,0.80
2023-03-18T11:56:49.769Z,0.70
2023-03-18T12:02:12.582Z,0.85
2023-03-18T12:07:44.915Z,0.93
2023-03-18T12:13:03.517Z,1.00
2023-03-18T12:18:14.536Z,1.63
2023-03-18T12:23:39.783Z,0.77
2023-03-18T12:29:01.636Z,0.77
2023-03-18T12:34:04.397Z,0.80
2023-03-18T12:39:37.078Z,0.85
2023-03-18T12:44:47.870Z,0.70
2023-03-18T12:49:54.829Z,1.00
2023-03-18T12:55:05.988Z,0.75
2023-03-18T13:00:19.157Z,0.80
2023-03-18T13:05:43.067Z,0.60
2023-03-18T13:10:50.051Z,0.70
2023-03-18T13:15:52.984Z,0.90
2023-03-18T13:21:16.114Z,0.60
2023-03-18T13:26:41.824Z,1.27
2023-03-18T13:32:15.660Z,0.77
2023-03-18T13:37:36.020Z,0.98
2023-03-18T13:42:40.170Z,0.82
2023-03-18T13:47:44.307Z,0.50
2023-03-18T13:52:47.973Z,0.85
2023-03-18T13:57:57.373Z,1.10
2023-03-18T14:03:19.384Z,1.02
2023-03-18T14:08:34.152Z,0.90
2023-03-18T14:13:36.107Z,0.70
2023-03-18T14:18:38.509Z,1.20
2023-03-18T14:23:44.448Z,1.00
2023-03-18T14:28:55.512Z,0.90
2023-03-18T14:34:03.912Z,0.65
2023-03-18T14:39:07.338Z,1.10
2023-03-18T14:44:20.834Z,0.70
2023-03-18T14:49:39.409Z,0.73
2023-03-18T14:54:43.705Z,0.82
2023-03-18T14:59:45.145Z,1.33
2023-03-18T15:04:53.227Z,0.98
2023-03-18T15:09:55.084Z,0.88
2023-03-18T15:14:56.947Z,0.85
2023-03-18T15:20:00.289Z,0.80
2023-03-18T15:25:04.637Z,1.05
2023-03-18T15:30:07.638Z,0.73
2023-03-18T15:35:36.179Z,1.38
2023-03-18T15:40:52.757Z,0.90
2023-03-18T15:46:00.165Z,1.05
2023-03-18T15:51:04.954Z,1.17
2023-03-18T15:56:26.782Z,0.93
2023-03-18T16:01:28.751Z,0.70
2023-03-18T16:06:34.286Z,0.70
2023-03-18T16:11:36.928Z,0.90
2023-03-18T16:16:38.502Z,1.02
2023-03-18T16:21:41.697Z,3.20
2023-03-18T16:26:43.310Z,1.50
2023-03-18T16:31:46.182Z,1.00
2023-03-18T16:36:50.592Z,3.63
2023-03-18T16:41:52.626Z,3.55
2023-03-18T16:46:56.819Z,3.45
2023-03-18T16:51:59.047Z,0.80
2023-03-18T16:57:04.354Z,1.38
2023-03-18T17:02:25.202Z,0.95
2023-03-18T17:07:28.436Z,1.08
2023-03-18T17:12:30.710Z,2.40
2023-03-18T17:17:35.890Z,2.80
2023-03-18T17:22:37.805Z,1.58
2023-03-18T17:27:50.831Z,2.95
2023-03-18T17:32:52.478Z,5.47
2023-03-18T17:37:54.782Z,5.10
2023-03-18T17:42:56.703Z,3.97
2023-03-18T17:48:14.938Z,1.90
2023-03-18T17:53:28.214Z,1.88
2023-03-18T17:58:32.097Z,1.83
2023-03-18T18:03:36.233Z,2.92
2023-03-18T18:08:37.648Z,2.90
2023-03-18T18:13:40.025Z,2.65
2023-03-18T18:18:41.652Z,6.70
2023-03-18T18:23:45.635Z,11.45
2023-03-18T18:28:49.861Z,6.90
2023-03-18T18:33:52.398Z,4.63
2023-03-18T18:38:55.117Z,3.40
2023-03-18T18:43:56.698Z,2.65
2023-03-18T18:48:58.442Z,2.83
2023-03-18T18:54:00.035Z,3.15
2023-03-18T18:59:05.118Z,2.60
2023-03-18T19:04:13.767Z,6.15
2023-03-18T19:09:21.018Z,8.65
2023-03-18T19:14:25.367Z,6.50
2023-03-18T19:19:34.372Z,6.13
2023-03-18T19:24:36.977Z,16.38
2023-03-18T19:29:38.559Z,9.43
2023-03-18T19:34:40.117Z,9.65
2023-03-18T19:39:42.784Z,6.60
2023-03-18T19:44:46.272Z,5.30
2023-03-18T19:49:47.849Z,5.28
2023-03-18T19:54:50.461Z,5.75
2023-03-18T19:59:53.996Z,5.15
2023-03-18T20:04:58.239Z,7.00
2023-03-18T20:09:59.660Z,8.65
2023-03-18T20:15:01.184Z,7.25
2023-03-18T20:20:02.710Z,6.45
2023-03-18T20:25:06.634Z,6.00
2023-03-18T20:30:21.969Z,4.35
2023-03-18T20:35:28.821Z,4.95
2023-03-18T20:40:31.288Z,5.05
2023-03-18T20:45:33.061Z,5.55
2023-03-18T20:50:35.004Z,6.20
2023-03-18T20:55:36.504Z,5.88
2023-03-18T21:00:38.718Z,5.32
2023-03-18T21:05:40.136Z,6.05
2023-03-18T21:10:42.401Z,5.72
2023-03-18T21:15:43.865Z,5.20
2023-03-18T21:20:45.540Z,6.28
2023-03-18T21:25:47.401Z,6.45
2023-03-18T21:30:52.500Z,5.32
2023-03-18T21:35:57.265Z,4.88
2023-03-18T21:41:00.719Z,4.05
2023-03-18T21:46:05.384Z,3.88
2023-03-18T21:51:09.461Z,4.22
2023-03-18T21:56:11.191Z,6.43
2023-03-18T22:01:19.233Z,4.78
2023-03-18T22:06:21.991Z,5.22
2023-03-18T22:11:23.700Z,4.20
2023-03-18T22:16:25.370Z,4.55
2023-03-18T22:21:28.520Z,4.45
2023-03-18T22:26:29.975Z,4.38
2023-03-18T22:31:31.566Z,4.75
2023-03-18T22:36:33.098Z,4.90
2023-03-18T22:41:34.490Z,4.72
2023-03-18T22:46:36.135Z,4.80
2023-03-18T22:51:39.804Z,4.65
2023-03-18T22:56:42.154Z,3.53
2023-03-18T23:01:43.765Z,4.80
2023-03-18T23:06:46.105Z,5.72
2023-03-18T23:11:47.610Z,4.90
2023-03-18T23:16:49.126Z,5.90
2023-03-18T23:21:50.639Z,7.28
2023-03-18T23:26:52.044Z,7.13
2023-03-18T23:31:53.511Z,4.40
2023-03-18T23:36:54.978Z,4.70
2023-03-18T23:41:56.587Z,4.32
2023-03-18T23:46:58.131Z,5.57
2023-03-18T23:52:01.232Z,4.60
2023-03-18T23:57:04.137Z,5.80
